createdAt,value
2023-01-17T00:01:34.135Z,11.00
2023-01-17T00:04:20.495Z,10.70
2023-01-17T00:07:06.051Z,9.30
2023-01-17T00:09:51.696Z,8.73
2023-01-17T00:12:20.357Z,10.55
2023-01-17T00:14:48.086Z,9.35
2023-01-17T00:17:15.317Z,9.73
2023-01-17T00:20:00.720Z,9.85
2023-01-17T00:22:48.557Z,9.45
2023-01-17T00:26:01.405Z,9.82
2023-01-17T00:28:39.619Z,8.73
2023-01-17T00:31:08.665Z,9.13
2023-01-17T00:33:36.094Z,9.57
2023-01-17T00:36:04.209Z,9.88
2023-01-17T00:38:33.818Z,9.40
2023-01-17T00:41:12.339Z,9.80
2023-01-17T00:43:58.377Z,9.35
2023-01-17T00:46:44.497Z,9.23
2023-01-17T00:49:30.330Z,8.55
2023-01-17T00:52:15.972Z,8.90
2023-01-17T00:55:01.676Z,8.15
2023-01-17T00:57:47.094Z,8.30
2023-01-17T01:00:34.063Z,7.38
2023-01-17T01:03:19.534Z,7.50
2023-01-17T01:06:05.217Z,7.43
2023-01-17T01:08:50.768Z,7.50
2023-01-17T01:11:38.873Z,7.60
2023-01-17T01:14:26.893Z,6.88
2023-01-17T01:17:12.667Z,6.88
2023-01-17T01:19:58.086Z,6.57
2023-01-17T01:22:43.502Z,5.85
2023-01-17T01:25:28.901Z,4.97
2023-01-17T01:28:30.775Z,5.38
2023-01-17T01:31:20.759Z,5.25
2023-01-17T01:33:48.026Z,5.30
2023-01-17T01:36:14.982Z,5.63
2023-01-17T01:38:41.934Z,5.95
2023-01-17T01:41:09.084Z,4.80
2023-01-17T01:43:45.271Z,5.25
2023-01-17T01:46:18.141Z,4.20
2023-01-17T01:48:48.490Z,4.30
2023-01-17T01:51:22.749Z,4.97
2023-01-17T01:53:54.327Z,4.53
2023-01-17T01:56:23.427Z,4.47
2023-01-17T01:58:53.253Z,4.35
2023-01-17T02:01:20.441Z,4.57
2023-01-17T02:03:49.413Z,4.30
2023-01-17T02:06:28.329Z,4.40
2023-01-17T02:08:58.140Z,4.80
2023-01-17T02:11:25.601Z,4.88
2023-01-17T02:13:52.578Z,4.53
2023-01-17T02:16:47.775Z,4.65
2023-01-17T02:19:45.697Z,5.00
2023-01-17T02:22:43.552Z,3.63
2023-01-17T02:25:28.638Z,3.80
2023-01-17T02:28:34.109Z,3.10
2023-01-17T02:31:07.428Z,2.60
2023-01-17T02:33:57.458Z,2.60
2023-01-17T02:36:31.441Z,2.45
2023-01-17T02:39:22.301Z,2.03
2023-01-17T02:42:00.260Z,2.00
2023-01-17T02:44:27.246Z,2.17
2023-01-17T02:46:57.175Z,1.75
2023-01-17T02:49:30.464Z,2.42
2023-01-17T02:52:27.838Z,2.03
2023-01-17T02:55:01.341Z,1.87
2023-01-17T02:58:05.204Z,2.78
2023-01-17T03:00:44.544Z,2.50
2023-01-17T03:03:24.321Z,2.38
2023-01-17T03:06:00.807Z,3.20
2023-01-17T03:08:28.555Z,3.45
2023-01-17T03:10:55.701Z,3.27
2023-01-17T03:13:22.770Z,2.80
2023-01-17T03:15:49.993Z,3.65
2023-01-17T03:18:17.423Z,3.95
2023-01-17T03:20:44.543Z,3.75
2023-01-17T03:23:11.614Z,3.45
2023-01-17T03:25:38.619Z,3.85
2023-01-17T03:28:05.780Z,4.45
2023-01-17T03:30:32.911Z,4.50
2023-01-17T03:33:00.119Z,4.43
2023-01-17T03:35:28.398Z,5.43
2023-01-17T03:37:55.709Z,5.05
2023-01-17T03:40:23.181Z,4.78
2023-01-17T03:42:50.219Z,5.15
2023-01-17T03:45:17.174Z,4.88
2023-01-17T03:47:44.139Z,5.28
2023-01-17T03:50:13.430Z,4.72
2023-01-17T03:52:40.438Z,4.95
2023-01-17T03:55:07.923Z,4.95
2023-01-17T03:57:34.996Z,5.22
2023-01-17T04:00:03.933Z,6.18
2023-01-17T04:02:34.490Z,6.28
2023-01-17T04:05:01.630Z,5.65
2023-01-17T04:07:28.637Z,5.82
2023-01-17T04:09:55.590Z,5.60
2023-01-17T04:12:22.676Z,6.07
2023-01-17T04:14:49.719Z,5.07
2023-01-17T04:17:19.636Z,5.40
2023-01-17T04:19:47.103Z,4.63
2023-01-17T04:22:14.166Z,3.85
2023-01-17T04:24:41.247Z,4.82
2023-01-17T04:27:08.237Z,5.30
2023-01-17T04:29:35.210Z,4.75
2023-01-17T04:32:02.191Z,4.70
2023-01-17T04:34:29.208Z,4.78
2023-01-17T04:36:56.135Z,5.00
2023-01-17T04:39:23.134Z,5.25
2023-01-17T04:41:50.080Z,5.18
2023-01-17T04:44:17.139Z,5.03
2023-01-17T04:46:44.132Z,5.45
2023-01-17T04:49:11.218Z,4.68
2023-01-17T04:51:38.235Z,5.57
2023-01-17T04:54:05.261Z,5.78
2023-01-17T04:56:32.306Z,5.72
2023-01-17T04:58:59.396Z,5.25
2023-01-17T05:01:26.603Z,5.30
2023-01-17T05:03:53.681Z,4.82
2023-01-17T05:06:20.757Z,4.82
2023-01-17T05:08:47.709Z,4.85
2023-01-17T05:11:14.857Z,4.90
2023-01-17T05:13:41.822Z,4.60
2023-01-17T05:16:08.879Z,4.97
2023-01-17T05:18:35.919Z,5.07
2023-01-17T05:21:03.929Z,4.95
2023-01-17T05:23:31.200Z,5.30
2023-01-17T05:25:58.138Z,4.80
2023-01-17T05:28:25.631Z,5.22
2023-01-17T05:30:52.666Z,4.75
2023-01-17T05:33:19.569Z,5.50
2023-01-17T05:35:46.674Z,6.82
2023-01-17T05:38:13.558Z,6.25
2023-01-17T05:40:40.554Z,6.03
2023-01-17T05:43:08.652Z,5.47
2023-01-17T05:45:36.044Z,5.55
2023-01-17T05:48:03.891Z,5.15
2023-01-17T05:50:36.454Z,4.88
2023-01-17T05:53:06.664Z,5.30
2023-01-17T05:55:34.494Z,4.80
2023-01-17T05:58:02.126Z,5.03
2023-01-17T06:00:30.079Z,5.53
2023-01-17T06:02:59.037Z,5.75
2023-01-17T06:05:28.140Z,5.40
2023-01-17T06:07:56.523Z,5.75
2023-01-17T06:10:24.244Z,5.47
2023-01-17T06:13:00.036Z,5.60
2023-01-17T06:15:27.085Z,5.35
2023-01-17T06:17:54.180Z,5.22
2023-01-17T06:20:21.200Z,5.40
2023-01-17T06:22:48.217Z,5.32
2023-01-17T06:25:15.244Z,4.60
2023-01-17T06:27:42.235Z,4.30
2023-01-17T06:30:09.887Z,4.97
2023-01-17T06:32:36.945Z,4.87
2023-01-17T06:35:04.176Z,4.60
2023-01-17T06:37:31.267Z,4.38
2023-01-17T06:39:58.268Z,4.53
2023-01-17T06:42:25.254Z,4.43
2023-01-17T06:44:52.284Z,4.22
2023-01-17T06:47:19.315Z,4.43
2023-01-17T06:49:46.332Z,3.75
2023-01-17T06:52:13.288Z,3.80
2023-01-17T06:54:40.277Z,3.33
2023-01-17T06:57:07.303Z,3.85
2023-01-17T06:59:34.452Z,4.38
2023-01-17T07:02:01.437Z,3.75
2023-01-17T07:04:28.410Z,4.63
2023-01-17T07:06:55.481Z,4.47
2023-01-17T07:09:22.390Z,4.65
2023-01-17T07:11:49.380Z,4.32
2023-01-17T07:14:16.752Z,4.70
2023-01-17T07:16:46.152Z,4.07
2023-01-17T07:19:13.314Z,4.65
2023-01-17T07:21:40.842Z,4.10
2023-01-17T07:24:09.289Z,4.40
2023-01-17T07:29:05.360Z,4.20
2023-01-17T07:31:36.878Z,4.47
2023-01-17T07:34:04.041Z,4.05
2023-01-17T07:36:30.986Z,4.63
2023-01-17T07:38:57.991Z,4.20
2023-01-17T07:41:25.122Z,4.70
2023-01-17T07:43:52.071Z,4.32
2023-01-17T07:46:19.519Z,3.75
2023-01-17T07:48:46.490Z,4.72
2023-01-17T07:51:13.512Z,4.10
2023-01-17T07:53:40.470Z,4.35
2023-01-17T07:56:08.207Z,4.55
2023-01-17T07:58:36.368Z,5.15
2023-01-17T08:01:11.071Z,5.05
2023-01-17T08:03:41.488Z,5.07
2023-01-17T08:06:20.388Z,5.88
2023-01-17T08:08:47.606Z,5.68
2023-01-17T08:11:14.778Z,5.20
2023-01-17T08:13:41.968Z,5.93
2023-01-17T08:16:12.990Z,5.93
2023-01-17T08:18:40.287Z,5.43
2023-01-17T08:21:15.030Z,6.25
2023-01-17T08:23:42.062Z,5.55
2023-01-17T08:26:09.123Z,5.53
2023-01-17T08:28:36.103Z,5.97
2023-01-17T08:31:07.989Z,7.88
2023-01-17T08:33:35.215Z,7.38
2023-01-17T08:36:02.469Z,5.38
2023-01-17T08:38:29.449Z,6.90
2023-01-17T08:40:59.698Z,5.97
2023-01-17T08:43:26.649Z,6.13
2023-01-17T08:45:56.025Z,6.10
2023-01-17T08:48:26.200Z,6.10
2023-01-17T08:50:53.228Z,6.68
2023-01-17T08:53:21.711Z,6.22
2023-01-17T08:55:48.836Z,5.70
2023-01-17T08:58:15.843Z,6.25
2023-01-17T09:00:42.815Z,5.28
2023-01-17T09:03:14.375Z,5.65
2023-01-17T09:05:41.407Z,5.38
2023-01-17T09:08:08.945Z,4.47
2023-01-17T09:10:38.736Z,4.95
2023-01-17T09:13:08.695Z,4.70
2023-01-17T09:15:35.674Z,4.97
2023-01-17T09:18:02.686Z,4.70
2023-01-17T09:20:30.860Z,4.30
2023-01-17T09:22:57.826Z,4.78
2023-01-17T09:25:24.889Z,5.20
2023-01-17T09:27:51.896Z,4.43
2023-01-17T09:30:18.959Z,4.50
2023-01-17T09:32:53.239Z,5.18
2023-01-17T09:35:20.414Z,5.38
2023-01-17T09:37:51.503Z,5.90
2023-01-17T09:40:22.419Z,5.35
2023-01-17T09:42:53.307Z,6.28
2023-01-17T09:45:21.123Z,5.78
2023-01-17T09:47:52.163Z,6.25
2023-01-17T09:50:43.789Z,5.97
2023-01-17T09:53:17.011Z,5.88
2023-01-17T09:56:04.949Z,6.22
2023-01-17T09:58:55.278Z,4.97
2023-01-17T10:01:45.874Z,5.22
2023-01-17T10:04:51.327Z,5.60
2023-01-17T10:07:40.694Z,5.35
2023-01-17T10:10:10.401Z,4.80
2023-01-17T10:12:53.944Z,4.25
2023-01-17T10:16:23.001Z,4.00
2023-01-17T10:19:08.958Z,3.75
2023-01-17T10:22:07.631Z,3.58
2023-01-17T10:24:53.534Z,2.80
2023-01-17T10:27:33.966Z,3.20
2023-01-17T10:30:15.816Z,3.10
2023-01-17T10:32:48.091Z,3.58
2023-01-17T10:35:23.113Z,3.00
2023-01-17T10:37:56.796Z,3.05
2023-01-17T10:41:15.815Z,3.05
2023-01-17T10:44:06.816Z,2.83
2023-01-17T10:46:45.117Z,2.88
2023-01-17T10:49:21.145Z,3.08
2023-01-17T10:52:06.600Z,2.85
2023-01-17T10:54:47.591Z,3.53
2023-01-17T10:57:25.992Z,2.90
2023-01-17T11:02:20.877Z,2.35
2023-01-17T11:04:54.409Z,2.30
2023-01-17T11:07:23.219Z,2.15
2023-01-17T11:09:53.336Z,1.70
2023-01-17T11:12:35.101Z,1.90
2023-01-17T11:15:11.430Z,2.85
2023-01-17T11:17:53.143Z,2.97
2023-01-17T11:20:39.958Z,3.38
2023-01-17T11:23:21.796Z,3.85
2023-01-17T11:26:05.058Z,3.65
2023-01-17T11:28:34.644Z,3.60
2023-01-17T11:31:05.164Z,3.90
2023-01-17T11:33:35.123Z,3.20
2023-01-17T11:36:02.338Z,2.80
2023-01-17T11:38:29.311Z,3.15
2023-01-17T11:41:16.265Z,2.80
2023-01-17T11:43:58.543Z,3.38
2023-01-17T11:46:26.004Z,3.22
2023-01-17T11:48:56.451Z,3.53
2023-01-17T11:51:33.147Z,3.42
2023-01-17T11:54:33.637Z,3.17
2023-01-17T11:57:01.883Z,4.10
2023-01-17T11:59:35.283Z,4.22
2023-01-17T12:02:21.100Z,4.47
2023-01-17T12:05:15.473Z,4.20
2023-01-17T12:08:00.684Z,5.18
2023-01-17T12:10:48.667Z,4.38
2023-01-17T12:13:37.151Z,4.15
2023-01-17T12:16:41.189Z,4.03
2023-01-17T12:19:17.115Z,3.88
2023-01-17T12:22:22.527Z,3.60
2023-01-17T12:25:27.305Z,4.10
2023-01-17T12:28:22.729Z,3.78
2023-01-17T12:31:10.855Z,4.10
2023-01-17T12:34:09.936Z,4.70
2023-01-17T12:36:40.066Z,4.32
2023-01-17T12:39:11.852Z,4.05
2023-01-17T12:41:56.500Z,4.50
2023-01-17T12:44:51.670Z,3.58
2023-01-17T12:47:20.886Z,3.67
2023-01-17T12:50:01.911Z,3.70
2023-01-17T12:52:54.159Z,4.10
2023-01-17T12:55:53.512Z,3.83
2023-01-17T12:58:24.573Z,4.22
2023-01-17T13:01:01.478Z,5.13
2023-01-17T13:03:45.296Z,4.85
2023-01-17T13:06:28.824Z,4.88
2023-01-17T13:08:58.171Z,5.25
2023-01-17T13:11:30.759Z,5.20
2023-01-17T13:13:59.953Z,4.50
2023-01-17T13:17:05.038Z,4.95
2023-01-17T13:19:47.709Z,4.28
2023-01-17T13:22:18.640Z,3.83
2023-01-17T13:24:55.731Z,3.35
2023-01-17T13:27:50.285Z,3.85
2023-01-17T13:30:32.573Z,4.15
2023-01-17T13:32:59.540Z,4.20
2023-01-17T13:35:37.172Z,4.65
2023-01-17T13:38:23.041Z,4.50
2023-01-17T13:40:54.350Z,4.28
2023-01-17T13:43:29.234Z,4.03
2023-01-17T13:45:58.709Z,4.60
2023-01-17T13:48:28.299Z,4.13
2023-01-17T13:51:04.355Z,4.68
2023-01-17T13:53:34.367Z,4.30
2023-01-17T13:56:32.396Z,4.57
2023-01-17T13:59:05.021Z,4.65
2023-01-17T14:01:38.465Z,4.13
2023-01-17T14:04:10.737Z,4.07
2023-01-17T14:06:52.919Z,3.65
2023-01-17T14:09:42.526Z,3.80
2023-01-17T14:12:09.614Z,3.53
2023-01-17T14:14:42.872Z,3.30
2023-01-17T14:17:29.284Z,3.50
2023-01-17T14:20:02.670Z,3.20
2023-01-17T14:22:34.828Z,3.28
2023-01-17T14:25:03.526Z,3.30
2023-01-17T14:27:34.675Z,3.20
2023-01-17T14:30:04.846Z,3.22
2023-01-17T14:32:35.464Z,3.10
2023-01-17T14:35:03.364Z,3.45
2023-01-17T14:37:33.129Z,2.95
2023-01-17T14:40:01.136Z,3.10
2023-01-17T14:42:32.550Z,3.10
2023-01-17T14:45:06.747Z,2.95
2023-01-17T14:47:41.577Z,3.13
2023-01-17T14:50:21.847Z,3.35
2023-01-17T14:53:06.277Z,3.20
2023-01-17T14:55:33.291Z,2.95
2023-01-17T14:58:00.408Z,2.85
2023-01-17T15:00:30.518Z,3.20
2023-01-17T15:03:00.167Z,3.72
2023-01-17T15:05:29.670Z,3.38
2023-01-17T15:07:58.262Z,3.47
2023-01-17T15:12:57.900Z,3.88
2023-01-17T15:15:39.792Z,3.90
2023-01-17T15:18:16.768Z,4.00
2023-01-17T15:20:50.170Z,5.00
2023-01-17T15:23:22.914Z,5.03
2023-01-17T15:25:52.378Z,4.45
2023-01-17T15:28:19.732Z,5.40
2023-01-17T15:31:09.320Z,4.47
2023-01-17T15:33:42.945Z,4.97
2023-01-17T15:36:28.854Z,4.95
2023-01-17T15:39:21.448Z,4.70
2023-01-17T15:41:53.012Z,4.95
2023-01-17T15:44:50.439Z,5.40
2023-01-17T15:47:30.411Z,5.95
2023-01-17T15:49:58.012Z,5.30
2023-01-17T15:52:25.126Z,5.18
2023-01-17T15:55:22.403Z,4.95
2023-01-17T15:57:49.592Z,5.40
2023-01-17T16:00:24.178Z,7.30
2023-01-17T16:02:56.135Z,5.90
2023-01-17T16:05:31.075Z,5.75
2023-01-17T16:08:29.785Z,4.95
2023-01-17T16:11:02.695Z,5.60
2023-01-17T16:13:32.265Z,4.53
2023-01-17T16:16:23.862Z,5.03
2023-01-17T16:19:01.573Z,5.60
2023-01-17T16:21:30.427Z,11.40
2023-01-17T16:23:58.324Z,14.20
2023-01-17T16:26:25.468Z,14.43
2023-01-17T16:28:52.592Z,11.63
2023-01-17T16:31:19.936Z,10.07
2023-01-17T16:33:49.908Z,8.50
2023-01-17T16:36:17.791Z,6.95
2023-01-17T16:38:45.820Z,6.00
2023-01-17T16:41:12.911Z,5.55
2023-01-17T16:43:40.200Z,4.90
2023-01-17T16:46:07.879Z,4.85
2023-01-17T16:48:37.451Z,4.53
2023-01-17T16:51:07.295Z,4.95
2023-01-17T16:53:35.934Z,3.90
2023-01-17T16:56:11.946Z,4.18
2023-01-17T16:58:39.152Z,4.35
2023-01-17T17:01:15.503Z,4.90
2023-01-17T17:03:43.819Z,6.65
2023-01-17T17:06:11.626Z,6.07
2023-01-17T17:08:39.824Z,5.80
2023-01-17T17:11:21.128Z,4.95
2023-01-17T17:13:50.135Z,6.03
2023-01-17T17:16:18.602Z,6.03
2023-01-17T17:18:47.458Z,6.07
2023-01-17T17:21:14.759Z,6.10
2023-01-17T17:23:41.898Z,5.60
2023-01-17T17:26:08.834Z,6.35
2023-01-17T17:28:35.946Z,6.40
2023-01-17T17:31:08.681Z,7.63
2023-01-17T17:33:37.006Z,6.82
2023-01-17T17:36:06.049Z,7.22
2023-01-17T17:38:35.165Z,7.88
2023-01-17T17:41:11.874Z,7.57
2023-01-17T17:43:41.001Z,7.25
2023-01-17T17:46:08.846Z,6.40
2023-01-17T17:48:36.483Z,6.75
2023-01-17T17:51:04.330Z,6.30
2023-01-17T17:53:31.680Z,7.03
2023-01-17T17:56:06.123Z,6.57
2023-01-17T17:58:35.205Z,7.88
2023-01-17T18:01:03.322Z,7.78
2023-01-17T18:03:31.105Z,8.65
2023-01-17T18:06:07.158Z,8.32
2023-01-17T18:08:35.292Z,8.00
2023-01-17T18:11:08.286Z,7.18
2023-01-17T18:13:35.362Z,7.60
2023-01-17T18:16:14.510Z,7.55
2023-01-17T18:18:44.907Z,10.30
2023-01-17T18:21:25.082Z,7.25
2023-01-17T18:23:54.574Z,7.28
2023-01-17T18:26:25.008Z,6.90
2023-01-17T18:28:54.039Z,6.00
2023-01-17T18:31:25.543Z,4.95
2023-01-17T18:33:54.187Z,5.72
2023-01-17T18:36:23.451Z,5.13
2023-01-17T18:38:51.092Z,5.40
2023-01-17T18:41:20.303Z,5.03
2023-01-17T18:43:50.721Z,4.82
2023-01-17T18:46:19.892Z,5.53
2023-01-17T18:48:47.115Z,5.15
2023-01-17T18:51:17.236Z,4.72
2023-01-17T18:53:45.963Z,4.93
2023-01-17T18:56:16.012Z,4.80
2023-01-17T18:58:45.500Z,4.97
2023-01-17T19:01:15.625Z,4.78
2023-01-17T19:03:47.933Z,4.43
2023-01-17T19:06:18.804Z,4.45
2023-01-17T19:08:45.879Z,4.38
2023-01-17T19:11:13.063Z,4.40
2023-01-17T19:13:41.909Z,4.75
2023-01-17T19:16:14.534Z,4.68
2023-01-17T19:18:41.883Z,4.95
2023-01-17T19:21:20.921Z,4.78
2023-01-17T19:23:48.315Z,4.97
2023-01-17T19:26:17.250Z,5.28
2023-01-17T19:28:45.616Z,5.28
2023-01-17T19:31:16.117Z,5.40
2023-01-17T19:33:45.404Z,4.80
2023-01-17T19:36:20.289Z,4.75
2023-01-17T19:39:03.088Z,4.57
2023-01-17T19:41:32.190Z,4.53
2023-01-17T19:44:04.731Z,4.80
2023-01-17T19:46:32.573Z,4.78
2023-01-17T19:49:00.159Z,5.55
2023-01-17T19:51:28.665Z,5.10
2023-01-17T19:56:25.870Z,5.00
2023-01-17T19:58:53.547Z,4.90
2023-01-17T20:01:28.350Z,4.40
2023-01-17T20:03:57.941Z,4.68
2023-01-17T20:06:27.719Z,4.10
2023-01-17T20:08:54.776Z,4.30
2023-01-17T20:11:23.965Z,4.20
2023-01-17T20:13:58.834Z,4.55
2023-01-17T20:16:28.134Z,4.88
2023-01-17T20:18:55.618Z,4.78
2023-01-17T20:21:27.888Z,4.80
2023-01-17T20:23:56.968Z,5.25
2023-01-17T20:26:31.110Z,5.50
2023-01-17T20:28:58.259Z,4.80
2023-01-17T20:31:28.128Z,4.88
2023-01-17T20:33:56.027Z,6.28
2023-01-17T20:36:25.112Z,6.10
2023-01-17T20:38:56.330Z,6.13
2023-01-17T20:41:26.203Z,5.85
2023-01-17T20:43:55.793Z,5.80
2023-01-17T20:46:26.060Z,5.60
2023-01-17T20:48:55.744Z,5.38
2023-01-17T20:51:24.730Z,4.68
2023-01-17T20:53:53.762Z,4.22
2023-01-17T20:56:20.791Z,4.18
2023-01-17T20:58:48.651Z,4.50
2023-01-17T21:01:21.234Z,4.35
2023-01-17T21:03:51.692Z,4.40
2023-01-17T21:06:20.593Z,4.78
2023-01-17T21:08:48.167Z,3.90
2023-01-17T21:11:26.104Z,3.72
2023-01-17T21:13:53.414Z,3.67
2023-01-17T21:16:23.019Z,4.32
2023-01-17T21:18:51.855Z,3.92
2023-01-17T21:21:24.641Z,4.07
2023-01-17T21:23:54.657Z,4.22
2023-01-17T21:26:22.924Z,3.92
2023-01-17T21:28:50.876Z,3.42
2023-01-17T21:31:25.866Z,4.13
2023-01-17T21:34:05.007Z,3.72
2023-01-17T21:36:34.940Z,3.38
2023-01-17T21:39:05.001Z,3.97
2023-01-17T21:41:35.364Z,3.90
2023-01-17T21:44:07.940Z,3.85
2023-01-17T21:46:40.910Z,3.90
2023-01-17T21:49:11.872Z,3.85
2023-01-17T21:51:55.214Z,3.38
2023-01-17T21:54:44.574Z,3.38
2023-01-17T21:57:31.915Z,3.30
2023-01-17T21:59:59.212Z,3.13
2023-01-17T22:02:26.387Z,2.75
2023-01-17T22:04:54.710Z,2.83
2023-01-17T22:07:21.950Z,2.25
2023-01-17T22:09:48.979Z,2.20
2023-01-17T22:12:16.012Z,1.88
2023-01-17T22:14:42.939Z,1.90
2023-01-17T22:17:09.902Z,1.63
2023-01-17T22:19:36.843Z,1.55
2023-01-17T22:22:04.026Z,1.55
2023-01-17T22:24:31.006Z,1.83
2023-01-17T22:27:01.085Z,1.52
2023-01-17T22:29:28.171Z,1.50
2023-01-17T22:31:55.241Z,1.75
2023-01-17T22:34:22.874Z,1.77
2023-01-17T22:36:49.950Z,3.60
2023-01-17T22:39:16.918Z,3.15
2023-01-17T22:41:43.896Z,3.72
2023-01-17T22:44:11.275Z,4.20
2023-01-17T22:46:39.295Z,5.05
2023-01-17T22:49:08.415Z,6.20
2023-01-17T22:51:35.664Z,6.00
2023-01-17T22:54:02.716Z,9.77
2023-01-17T22:56:32.294Z,9.80
2023-01-17T22:59:01.160Z,8.82
2023-01-17T23:01:30.753Z,10.10
2023-01-17T23:04:04.990Z,10.15
2023-01-17T23:06:37.131Z,11.52
2023-01-17T23:09:13.802Z,10.98
2023-01-17T23:11:47.415Z,13.57
2023-01-17T23:14:17.679Z,11.10
2023-01-17T23:17:08.657Z,11.43
2023-01-17T23:19:41.618Z,10.98
2023-01-17T23:22:21.003Z,10.55
2023-01-17T23:25:11.284Z,9.70
2023-01-17T23:28:05.445Z,9.52
2023-01-17T23:30:43.093Z,9.50
2023-01-17T23:33:15.127Z,12.70
2023-01-17T23:35:44.253Z,11.35
2023-01-17T23:38:34.008Z,12.55
2023-01-17T23:41:27.640Z,11.98
2023-01-17T23:43:58.992Z,12.15
2023-01-17T23:46:27.064Z,10.93
2023-01-17T23:48:55.210Z,13.02
2023-01-17T23:51:22.465Z,11.50
2023-01-17T23:53:50.961Z,10.00
2023-01-17T23:56:23.205Z,11.13
2023-01-17T23:58:50.515Z,9.90
